createdAt,value
2022-11-03T00:01:46.436Z,8.24
2022-11-03T00:04:18.171Z,8.27
2022-11-03T00:06:47.614Z,8.29
2022-11-03T00:09:15.902Z,8.37
2022-11-03T00:11:44.124Z,8.23
2022-11-03T00:14:11.660Z,8.16
2022-11-03T00:16:39.469Z,7.96
2022-11-03T00:19:07.205Z,7.92
2022-11-03T00:21:33.880Z,7.86
2022-11-03T00:24:02.766Z,7.80
2022-11-03T00:26:31.307Z,7.77
2022-11-03T00:29:05.922Z,7.82
2022-11-03T00:31:35.137Z,7.85
2022-11-03T00:34:02.548Z,7.86
2022-11-03T00:36:34.913Z,7.65
2022-11-03T00:39:01.931Z,7.84
2022-11-03T00:41:28.509Z,7.86
2022-11-03T00:43:55.551Z,7.73
2022-11-03T00:46:23.119Z,7.73
2022-11-03T00:48:50.460Z,7.63
2022-11-03T00:51:21.323Z,7.70
2022-11-03T00:53:49.127Z,7.64
2022-11-03T00:56:22.180Z,7.59
2022-11-03T00:58:50.250Z,7.59
2022-11-03T01:01:20.272Z,7.52
2022-11-03T01:04:09.763Z,7.53
2022-11-03T01:06:50.676Z,7.54
2022-11-03T01:09:39.869Z,7.46
2022-11-03T01:12:13.092Z,7.41
2022-11-03T01:14:44.209Z,7.23
2022-11-03T01:17:16.851Z,7.34
2022-11-03T01:19:43.462Z,7.40
2022-11-03T01:22:11.440Z,7.47
2022-11-03T01:24:41.256Z,7.35
2022-11-03T01:27:13.722Z,7.25
2022-11-03T01:29:40.929Z,7.18
2022-11-03T01:32:08.793Z,6.93
2022-11-03T01:34:35.776Z,6.93
2022-11-03T01:37:02.868Z,7.02
2022-11-03T01:39:29.389Z,7.08
2022-11-03T01:41:56.494Z,7.02
2022-11-03T01:44:22.982Z,7.17
2022-11-03T01:46:59.337Z,7.12
2022-11-03T01:49:32.757Z,7.10
2022-11-03T01:52:09.919Z,7.06
2022-11-03T01:54:38.118Z,7.01
2022-11-03T01:57:11.692Z,6.98
2022-11-03T01:59:40.005Z,6.90
2022-11-03T02:02:06.744Z,6.88
2022-11-03T02:04:34.926Z,6.86
2022-11-03T02:07:10.175Z,6.86
2022-11-03T02:09:36.813Z,6.86
2022-11-03T02:12:06.399Z,6.83
2022-11-03T02:14:33.270Z,6.82
2022-11-03T02:17:06.273Z,6.80
2022-11-03T02:19:47.464Z,6.81
2022-11-03T02:22:38.827Z,6.81
2022-11-03T02:25:32.931Z,6.69
2022-11-03T02:28:00.334Z,6.76
2022-11-03T02:30:38.639Z,6.79
2022-11-03T02:33:59.815Z,6.88
2022-11-03T02:36:31.544Z,6.82
2022-11-03T02:39:05.628Z,6.87
2022-11-03T02:41:35.542Z,6.92
2022-11-03T02:44:04.378Z,6.88
2022-11-03T02:46:32.857Z,6.87
2022-11-03T02:48:59.384Z,6.81
2022-11-03T02:51:26.101Z,6.85
2022-11-03T02:54:26.190Z,6.80
2022-11-03T02:56:59.352Z,6.81
2022-11-03T02:59:50.612Z,6.73
2022-11-03T03:02:24.194Z,6.53
2022-11-03T03:04:55.871Z,6.61
2022-11-03T03:07:30.506Z,6.60
2022-11-03T03:10:03.211Z,6.44
2022-11-03T03:12:32.475Z,6.61
2022-11-03T03:15:02.296Z,6.62
2022-11-03T03:17:35.046Z,6.69
2022-11-03T03:20:04.010Z,6.66
2022-11-03T03:22:39.092Z,6.63
2022-11-03T03:25:29.444Z,6.78
2022-11-03T03:28:05.278Z,6.68
2022-11-03T03:30:33.853Z,6.69
2022-11-03T03:33:04.597Z,6.78
2022-11-03T03:35:33.360Z,6.76
2022-11-03T03:38:06.296Z,6.78
2022-11-03T03:40:36.712Z,6.78
2022-11-03T03:43:07.088Z,6.75
2022-11-03T03:45:36.338Z,6.65
2022-11-03T03:48:04.710Z,6.66
2022-11-03T03:50:35.843Z,6.65
2022-11-03T03:53:05.375Z,6.62
2022-11-03T03:55:39.528Z,6.60
2022-11-03T03:58:07.462Z,6.54
2022-11-03T04:00:34.085Z,6.50
2022-11-03T04:03:00.618Z,6.35
2022-11-03T04:05:27.611Z,6.50
2022-11-03T04:07:54.249Z,6.43
2022-11-03T04:10:22.688Z,6.47
2022-11-03T04:13:08.704Z,6.30
2022-11-03T04:16:01.772Z,6.32
2022-11-03T04:18:47.241Z,6.41
2022-11-03T04:21:33.041Z,6.34
2022-11-03T04:24:02.699Z,6.32
2022-11-03T04:26:29.854Z,6.32
2022-11-03T04:28:57.874Z,6.22
2022-11-03T04:31:24.608Z,6.24
2022-11-03T04:33:51.156Z,6.24
2022-11-03T04:36:22.725Z,6.21
2022-11-03T04:38:51.214Z,6.10
2022-11-03T04:41:24.213Z,6.24
2022-11-03T04:43:52.613Z,6.18
2022-11-03T04:46:28.924Z,6.18
2022-11-03T04:48:59.380Z,6.17
2022-11-03T04:51:30.678Z,6.14
2022-11-03T04:54:13.236Z,6.08
2022-11-03T04:56:40.871Z,6.05
2022-11-03T04:59:13.312Z,6.07
2022-11-03T05:01:40.596Z,6.03
2022-11-03T05:04:16.329Z,5.97
2022-11-03T05:06:53.429Z,5.78
2022-11-03T05:09:26.914Z,5.75
2022-11-03T05:11:54.257Z,5.72
2022-11-03T05:14:24.569Z,5.81
2022-11-03T05:16:53.947Z,5.84
2022-11-03T05:19:24.562Z,5.87
2022-11-03T05:21:52.745Z,5.83
2022-11-03T05:24:21.845Z,5.63
2022-11-03T05:26:49.704Z,5.75
2022-11-03T05:29:20.332Z,5.72
2022-11-03T05:31:48.456Z,5.67
2022-11-03T05:34:26.992Z,5.71
2022-11-03T05:36:53.896Z,5.71
2022-11-03T05:39:29.010Z,5.62
2022-11-03T05:41:58.044Z,5.60
2022-11-03T05:44:37.810Z,5.64
2022-11-03T05:47:14.372Z,5.58
2022-11-03T05:49:41.017Z,5.54
2022-11-03T05:52:18.059Z,5.55
2022-11-03T05:54:44.766Z,5.57
2022-11-03T05:57:14.822Z,5.59
2022-11-03T05:59:45.001Z,5.48
2022-11-03T06:02:27.393Z,5.58
2022-11-03T06:04:54.043Z,5.56
2022-11-03T06:07:24.787Z,5.61
2022-11-03T06:09:52.867Z,5.64
2022-11-03T06:12:22.216Z,5.68
2022-11-03T06:14:49.650Z,5.67
2022-11-03T06:17:25.579Z,5.74
2022-11-03T06:20:00.446Z,5.74
2022-11-03T06:22:36.107Z,5.78
2022-11-03T06:25:24.019Z,5.79
2022-11-03T06:27:51.583Z,5.67
2022-11-03T06:30:20.984Z,5.55
2022-11-03T06:32:47.728Z,5.73
2022-11-03T06:35:14.790Z,5.79
2022-11-03T06:37:42.302Z,5.86
2022-11-03T06:40:11.705Z,5.86
2022-11-03T06:42:41.300Z,5.84
2022-11-03T06:45:19.363Z,5.86
2022-11-03T06:47:46.567Z,5.88
2022-11-03T06:50:44.660Z,5.89
2022-11-03T06:53:12.101Z,5.91
2022-11-03T06:55:40.370Z,5.91
2022-11-03T06:58:28.460Z,6.03
2022-11-03T07:01:03.056Z,6.07
2022-11-03T07:03:35.389Z,6.05
2022-11-03T07:06:10.765Z,6.14
2022-11-03T07:08:48.008Z,6.17
2022-11-03T07:11:14.535Z,6.24
2022-11-03T07:13:41.683Z,6.21
2022-11-03T07:16:45.855Z,6.31
2022-11-03T07:19:24.842Z,6.45
2022-11-03T07:21:54.290Z,6.53
2022-11-03T07:24:23.525Z,6.67
2022-11-03T07:27:02.695Z,6.57
2022-11-03T07:29:30.625Z,6.81
2022-11-03T07:31:59.537Z,6.95
2022-11-03T07:34:33.488Z,7.12
2022-11-03T07:37:00.747Z,7.28
2022-11-03T07:39:35.096Z,7.36
2022-11-03T07:42:09.723Z,7.52
2022-11-03T07:44:36.258Z,7.62
2022-11-03T07:47:03.236Z,7.60
2022-11-03T07:49:30.354Z,7.85
2022-11-03T07:51:59.079Z,7.94
2022-11-03T07:54:33.124Z,8.06
2022-11-03T07:57:14.841Z,8.21
2022-11-03T07:59:44.859Z,8.40
2022-11-03T08:02:26.274Z,8.53
2022-11-03T08:04:52.862Z,8.61
2022-11-03T08:07:19.431Z,8.70
2022-11-03T08:09:45.994Z,8.75
2022-11-03T08:12:12.563Z,8.83
2022-11-03T08:14:39.130Z,8.93
2022-11-03T08:17:05.704Z,9.05
2022-11-03T08:19:32.223Z,9.17
2022-11-03T08:21:58.806Z,9.31
2022-11-03T08:24:25.444Z,9.42
2022-11-03T08:26:51.995Z,9.41
2022-11-03T08:29:18.864Z,9.59
2022-11-03T08:31:45.547Z,9.63
2022-11-03T08:34:12.132Z,9.68
2022-11-03T08:36:38.642Z,9.76
2022-11-03T08:39:05.193Z,9.80
2022-11-03T08:41:31.759Z,9.69
2022-11-03T08:43:58.431Z,9.83
2022-11-03T08:46:24.908Z,9.87
2022-11-03T08:48:52.051Z,9.89
2022-11-03T08:51:18.664Z,9.85
2022-11-03T08:53:46.382Z,9.90
2022-11-03T08:56:14.352Z,10.02
2022-11-03T08:58:44.067Z,10.08
2022-11-03T09:01:10.979Z,10.19
2022-11-03T09:03:37.757Z,10.27
2022-11-03T09:06:04.924Z,10.38
2022-11-03T09:11:18.288Z,10.59
2022-11-03T09:13:44.785Z,10.61
2022-11-03T09:16:11.319Z,10.45
2022-11-03T09:18:37.870Z,10.15
2022-11-03T09:21:04.453Z,10.03
2022-11-03T09:23:30.936Z,10.10
2022-11-03T09:25:57.493Z,9.96
2022-11-03T09:28:24.040Z,10.06
2022-11-03T09:30:50.608Z,10.11
2022-11-03T09:33:17.137Z,10.22
2022-11-03T09:35:43.695Z,10.30
2022-11-03T09:38:10.364Z,10.44
2022-11-03T09:40:37.100Z,10.61
2022-11-03T09:43:03.896Z,10.76
2022-11-03T09:45:30.622Z,10.97
2022-11-03T09:47:57.284Z,11.05
2022-11-03T09:50:24.261Z,11.17
2022-11-03T09:52:55.261Z,11.21
2022-11-03T09:55:25.400Z,11.15
2022-11-03T09:57:58.904Z,11.26
2022-11-03T10:00:27.165Z,11.22
2022-11-03T10:02:54.601Z,11.22
2022-11-03T10:05:27.340Z,11.15
2022-11-03T10:07:59.125Z,11.14
2022-11-03T10:10:26.388Z,11.06
2022-11-03T10:12:53.769Z,11.25
2022-11-03T10:15:22.811Z,11.38
2022-11-03T10:17:50.667Z,11.52
2022-11-03T10:20:21.187Z,11.80
2022-11-03T10:22:52.617Z,12.02
2022-11-03T10:25:37.658Z,12.30
2022-11-03T10:28:15.384Z,12.57
2022-11-03T10:33:40.984Z,13.02
2022-11-03T10:36:23.971Z,13.08
2022-11-03T10:38:50.685Z,12.88
2022-11-03T10:41:24.594Z,12.93
2022-11-03T10:44:06.174Z,12.98
2022-11-03T10:49:20.516Z,13.26
2022-11-03T10:51:50.325Z,13.53
2022-11-03T10:54:19.205Z,13.52
2022-11-03T10:56:47.098Z,13.47
2022-11-03T10:59:17.798Z,13.36
2022-11-03T11:01:44.850Z,13.33
2022-11-03T11:04:21.088Z,13.17
2022-11-03T11:06:48.178Z,12.94
2022-11-03T11:09:27.928Z,12.90
2022-11-03T11:12:16.539Z,12.96
2022-11-03T11:14:56.683Z,13.04
2022-11-03T11:17:46.375Z,13.11
2022-11-03T11:20:22.654Z,13.17
2022-11-03T11:22:50.298Z,13.21
2022-11-03T11:25:20.656Z,13.05
2022-11-03T11:27:47.097Z,13.03
2022-11-03T11:30:19.472Z,13.02
2022-11-03T11:32:45.967Z,13.05
2022-11-03T11:35:22.932Z,13.38
2022-11-03T11:37:49.483Z,13.51
2022-11-03T11:40:24.827Z,13.62
2022-11-03T11:43:20.554Z,13.66
2022-11-03T11:46:21.369Z,13.69
2022-11-03T11:49:02.147Z,13.64
2022-11-03T11:51:28.597Z,13.56
2022-11-03T11:54:16.479Z,13.51
2022-11-03T11:56:47.473Z,13.44
2022-11-03T11:59:24.733Z,13.43
2022-11-03T12:01:55.440Z,13.32
2022-11-03T12:04:31.553Z,13.13
2022-11-03T12:06:58.504Z,13.19
2022-11-03T12:09:29.854Z,13.05
2022-11-03T12:12:00.667Z,12.99
2022-11-03T12:14:38.389Z,12.88
2022-11-03T12:17:17.243Z,12.84
2022-11-03T12:19:48.930Z,12.81
2022-11-03T12:22:24.601Z,12.86
2022-11-03T12:25:02.971Z,12.89
2022-11-03T12:27:29.444Z,12.96
2022-11-03T12:29:59.578Z,13.04
2022-11-03T12:32:34.997Z,13.03
2022-11-03T12:35:03.386Z,12.99
2022-11-03T12:37:29.940Z,13.04
2022-11-03T12:39:56.475Z,13.03
2022-11-03T12:42:24.924Z,13.02
2022-11-03T12:44:52.351Z,12.95
2022-11-03T12:47:19.693Z,13.04
2022-11-03T12:49:46.235Z,13.08
2022-11-03T12:52:12.743Z,13.00
2022-11-03T12:54:39.771Z,13.13
2022-11-03T12:57:06.319Z,13.06
2022-11-03T12:59:32.817Z,13.03
2022-11-03T13:01:59.482Z,12.98
2022-11-03T13:04:26.187Z,12.95
2022-11-03T13:06:52.686Z,12.92
2022-11-03T13:09:19.228Z,12.90
2022-11-03T13:12:04.533Z,12.87
2022-11-03T13:14:31.192Z,12.84
2022-11-03T13:16:57.722Z,12.85
2022-11-03T13:19:24.272Z,12.87
2022-11-03T13:21:50.890Z,12.91
2022-11-03T13:24:17.426Z,12.90
2022-11-03T13:26:43.938Z,12.94
2022-11-03T13:29:10.489Z,12.96
2022-11-03T13:31:36.970Z,12.99
2022-11-03T13:34:03.424Z,13.05
2022-11-03T13:36:29.977Z,13.09
2022-11-03T13:38:56.549Z,13.14
2022-11-03T13:41:23.091Z,13.21
2022-11-03T13:43:49.632Z,13.22
2022-11-03T13:46:16.189Z,13.19
2022-11-03T13:51:29.289Z,13.09
2022-11-03T13:59:29.322Z,13.03
2022-11-03T14:04:43.653Z,12.82
2022-11-03T14:07:10.932Z,12.65
2022-11-03T14:12:22.691Z,12.79
2022-11-03T14:14:49.710Z,12.78
2022-11-03T14:17:16.288Z,12.61
2022-11-03T14:19:47.254Z,12.70
2022-11-03T14:22:17.085Z,12.76
2022-11-03T14:24:44.189Z,12.84
2022-11-03T14:27:11.629Z,12.87
2022-11-03T14:29:38.549Z,12.69
2022-11-03T14:32:05.470Z,12.80
2022-11-03T14:34:32.100Z,12.81
2022-11-03T14:36:58.784Z,12.76
2022-11-03T14:39:25.723Z,12.76
2022-11-03T14:42:05.421Z,12.73
2022-11-03T14:44:39.549Z,12.70
2022-11-03T14:47:09.417Z,12.65
2022-11-03T14:49:36.947Z,12.58
2022-11-03T14:52:06.087Z,12.51
2022-11-03T14:54:39.838Z,12.40
2022-11-03T14:57:06.611Z,12.40
2022-11-03T14:59:34.065Z,12.31
2022-11-03T15:02:01.057Z,12.23
2022-11-03T15:04:28.103Z,12.17
2022-11-03T15:06:54.713Z,12.14
2022-11-03T15:09:21.583Z,12.12
2022-11-03T15:11:48.224Z,12.06
2022-11-03T15:14:14.922Z,12.03
2022-11-03T15:16:41.540Z,12.03
2022-11-03T15:19:08.793Z,12.02
2022-11-03T15:21:36.890Z,11.93
2022-11-03T15:26:50.647Z,11.90
2022-11-03T15:29:17.278Z,11.83
2022-11-03T15:31:47.930Z,11.79
2022-11-03T15:34:15.511Z,11.76
2022-11-03T15:36:42.258Z,11.73
2022-11-03T15:39:08.950Z,11.65
2022-11-03T15:41:35.492Z,11.65
2022-11-03T15:44:02.072Z,11.66
2022-11-03T15:46:28.846Z,11.54
2022-11-03T15:48:58.006Z,11.65
2022-11-03T15:51:25.304Z,11.64
2022-11-03T15:53:57.764Z,11.59
2022-11-03T15:56:25.549Z,11.60
2022-11-03T15:58:52.110Z,11.54
2022-11-03T16:01:19.371Z,11.56
2022-11-03T16:03:46.097Z,11.55
2022-11-03T16:06:13.041Z,11.53
2022-11-03T16:08:39.607Z,11.54
2022-11-03T16:11:06.315Z,11.51
2022-11-03T16:13:32.890Z,11.52
2022-11-03T16:15:59.621Z,11.53
2022-11-03T16:18:26.261Z,11.55
2022-11-03T16:20:52.781Z,11.54
2022-11-03T16:23:19.631Z,11.56
2022-11-03T16:25:46.194Z,11.56
2022-11-03T16:28:13.056Z,11.59
2022-11-03T16:30:40.239Z,11.57
2022-11-03T16:33:07.617Z,11.61
2022-11-03T16:35:34.997Z,11.60
2022-11-03T16:38:02.520Z,11.57
2022-11-03T16:40:34.166Z,11.54
2022-11-03T16:43:11.249Z,11.55
2022-11-03T16:48:26.450Z,11.56
2022-11-03T16:50:56.810Z,11.57
2022-11-03T16:53:30.916Z,11.56
2022-11-03T16:55:59.830Z,11.55
2022-11-03T16:58:28.747Z,11.54
2022-11-03T17:00:55.599Z,11.52
2022-11-03T17:03:22.169Z,11.50
2022-11-03T17:05:48.759Z,11.46
2022-11-03T17:08:38.964Z,11.40
2022-11-03T17:11:02.011Z,11.36
2022-11-03T17:13:29.796Z,11.35
2022-11-03T17:15:56.393Z,11.37
2022-11-03T17:18:22.918Z,11.35
2022-11-03T17:20:49.458Z,11.33
2022-11-03T17:23:16.000Z,11.29
2022-11-03T17:25:42.873Z,11.33
2022-11-03T17:28:10.551Z,11.31
2022-11-03T17:30:39.388Z,11.11
2022-11-03T17:33:09.796Z,11.24
2022-11-03T17:35:40.174Z,11.23
2022-11-03T17:38:13.821Z,11.22
2022-11-03T17:40:42.687Z,11.20
2022-11-03T17:43:22.427Z,11.21
2022-11-03T17:45:49.292Z,11.06
2022-11-03T17:48:16.148Z,11.16
2022-11-03T17:50:48.952Z,11.18
2022-11-03T17:53:22.461Z,11.18
2022-11-03T17:56:09.048Z,11.08
2022-11-03T17:58:45.942Z,11.03
2022-11-03T18:01:22.466Z,11.17
2022-11-03T18:03:49.636Z,11.10
2022-11-03T18:06:25.381Z,11.21
2022-11-03T18:08:52.010Z,11.24
2022-11-03T18:11:43.990Z,11.28
2022-11-03T18:14:10.672Z,11.29
2022-11-03T18:16:37.477Z,11.19
2022-11-03T18:19:04.284Z,11.28
2022-11-03T18:21:31.038Z,11.29
2022-11-03T18:23:57.814Z,11.24
2022-11-03T18:26:26.355Z,11.28
2022-11-03T18:28:53.973Z,11.27
2022-11-03T18:31:33.725Z,11.29
2022-11-03T18:34:03.666Z,11.31
2022-11-03T18:36:35.494Z,11.30
2022-11-03T18:39:09.564Z,11.30
2022-11-03T18:41:40.592Z,11.27
2022-11-03T18:44:46.814Z,11.28
2022-11-03T18:47:15.594Z,11.30
2022-11-03T18:49:46.127Z,11.30
2022-11-03T18:52:19.456Z,11.34
2022-11-03T18:54:50.347Z,11.23
2022-11-03T18:57:21.724Z,11.37
2022-11-03T18:59:48.964Z,11.41
2022-11-03T19:02:25.394Z,11.39
2022-11-03T19:04:52.090Z,11.40
2022-11-03T19:07:24.979Z,11.37
2022-11-03T19:09:52.509Z,11.33
2022-11-03T19:12:19.483Z,11.28
2022-11-03T19:14:48.222Z,11.20
2022-11-03T19:17:23.934Z,11.11
2022-11-03T19:19:52.514Z,11.03
2022-11-03T19:22:21.029Z,10.96
2022-11-03T19:24:48.101Z,10.97
2022-11-03T19:27:25.803Z,10.93
2022-11-03T19:29:52.826Z,10.86
2022-11-03T19:32:28.073Z,10.74
2022-11-03T19:34:58.634Z,10.69
2022-11-03T19:37:25.664Z,10.57
2022-11-03T19:39:52.865Z,10.46
2022-11-03T19:42:31.243Z,10.37
2022-11-03T19:44:59.608Z,10.46
2022-11-03T19:47:31.659Z,10.25
2022-11-03T19:50:00.347Z,10.20
2022-11-03T19:52:29.416Z,10.25
2022-11-03T19:54:58.028Z,10.41
2022-11-03T19:57:24.729Z,10.39
2022-11-03T19:59:51.384Z,10.39
2022-11-03T20:02:18.245Z,10.36
2022-11-03T20:04:47.290Z,10.38
2022-11-03T20:07:15.762Z,10.38
2022-11-03T20:09:43.263Z,10.25
2022-11-03T20:12:14.730Z,10.45
2022-11-03T20:14:41.273Z,10.25
2022-11-03T20:17:10.574Z,10.47
2022-11-03T20:19:37.227Z,10.44
2022-11-03T20:22:06.054Z,10.26
2022-11-03T20:24:33.187Z,10.47
2022-11-03T20:27:01.564Z,10.48
2022-11-03T20:29:33.713Z,10.49
2022-11-03T20:32:01.650Z,10.60
2022-11-03T20:34:32.520Z,10.63
2022-11-03T20:37:05.671Z,10.65
2022-11-03T20:39:40.724Z,10.69
2022-11-03T20:42:36.568Z,10.72
2022-11-03T20:45:21.425Z,10.69
2022-11-03T20:47:54.623Z,10.68
2022-11-03T20:50:34.788Z,10.67
2022-11-03T20:53:05.164Z,10.70
2022-11-03T20:58:22.774Z,10.72
2022-11-03T21:00:54.090Z,10.75
2022-11-03T21:03:38.222Z,10.77
2022-11-03T21:06:24.659Z,10.76
2022-11-03T21:08:53.058Z,10.79
2022-11-03T21:14:29.859Z,10.84
2022-11-03T21:17:37.126Z,10.86
2022-11-03T21:20:12.651Z,10.90
2022-11-03T21:25:45.073Z,10.81
2022-11-03T21:28:12.306Z,10.70
2022-11-03T21:30:38.914Z,10.97
2022-11-03T21:33:05.500Z,10.95
2022-11-03T21:35:32.002Z,10.90
2022-11-03T21:38:00.344Z,10.96
2022-11-03T21:40:27.093Z,10.97
2022-11-03T21:43:12.105Z,10.98
2022-11-03T21:45:38.794Z,11.01
2022-11-03T21:48:24.096Z,10.98
2022-11-03T21:50:50.701Z,11.09
2022-11-03T21:53:17.320Z,11.08
2022-11-03T21:55:46.373Z,11.15
2022-11-03T21:58:12.891Z,11.20
2022-11-03T22:00:39.582Z,11.18
2022-11-03T22:03:06.390Z,11.23
2022-11-03T22:05:33.532Z,11.22
2022-11-03T22:08:00.046Z,11.21
2022-11-03T22:10:26.683Z,11.24
2022-11-03T22:12:53.260Z,11.17
2022-11-03T22:15:38.696Z,11.16
2022-11-03T22:18:06.492Z,11.24
2022-11-03T22:20:52.332Z,11.23
2022-11-03T22:23:37.817Z,11.24
2022-11-03T22:26:23.073Z,11.27
2022-11-03T22:29:09.588Z,11.34
2022-11-03T22:31:42.167Z,11.34
2022-11-03T22:34:27.890Z,11.37
2022-11-03T22:36:54.396Z,11.36
2022-11-03T22:39:39.588Z,11.31
2022-11-03T22:42:24.482Z,11.35
2022-11-03T22:45:17.120Z,11.10
2022-11-03T22:47:43.696Z,11.25
2022-11-03T22:50:10.317Z,11.27
2022-11-03T22:52:36.953Z,11.28
2022-11-03T22:55:03.728Z,11.13
2022-11-03T22:57:30.246Z,11.24
2022-11-03T22:59:56.768Z,11.27
2022-11-03T23:02:23.365Z,11.10
2022-11-03T23:04:50.172Z,11.07
2022-11-03T23:07:16.705Z,11.24
2022-11-03T23:09:43.223Z,11.27
2022-11-03T23:12:09.691Z,11.19
2022-11-03T23:14:54.798Z,11.13
2022-11-03T23:17:42.343Z,11.19
2022-11-03T23:20:27.729Z,11.23
2022-11-03T23:22:54.300Z,10.99
2022-11-03T23:25:20.781Z,11.13
2022-11-03T23:27:47.613Z,11.08
2022-11-03T23:30:14.139Z,11.06
2022-11-03T23:32:40.645Z,11.06
2022-11-03T23:35:07.620Z,11.02
2022-11-03T23:37:34.266Z,11.00
2022-11-03T23:40:00.844Z,11.01
2022-11-03T23:42:27.379Z,11.02
2022-11-03T23:45:12.412Z,11.07
2022-11-03T23:47:57.600Z,11.06
2022-11-03T23:50:24.092Z,11.03
2022-11-03T23:52:50.606Z,10.90
2022-11-03T23:55:17.098Z,11.07
2022-11-03T23:58:02.021Z,11.08
